Flight Track Log - Related Links

Times and Time Zones

All times are in EDT time to prevent confusion due to time zone crossing. See the NSH880 flight status page for this flight to view local times or setup timezone preferences in your user account.

Time Position Orientation Groundspeed Altitude Reporting Facility
EDT Latitude Longitude Course Direction KTS MPH feet Rate Location/Type
Sun 02:26:10 PM 46.9433 -114.1336 49° Northeast 207 238 4,600  Level Salt Lake Center
Sun 02:27:12 PM 46.9775 -114.0769 49° Northeast 235 270 7,300 2,371 Climbing Salt Lake Center
Sun 02:28:14 PM 46.9661 -113.9611 98° East 276 318 9,500 1,984 Climbing Salt Lake Center
Sun 02:29:16 PM 46.9400 -113.8333 107° East 326 375 11,400 2,323 Climbing Salt Lake Center
Sun 02:30:18 PM 46.9117 -113.6808 105° East 359 413 14,300 2,903 Climbing Salt Lake Center
Sun 02:31:20 PM 46.8903 -113.5353 102° East 366 421 17,400 2,613 Climbing Salt Lake Center
Sun 02:32:22 PM 46.8672 -113.3897 103° East 370 426 19,700 1,935 Climbing Salt Lake Center
Sun 02:33:24 PM 46.8414 -113.2567 106° East 386 444 21,400 2,129 Climbing Salt Lake Center
Sun 02:34:26 PM 46.8092 -113.0753 104° East 389 448 24,100 2,129 Climbing Salt Lake Center
Sun 02:35:28 PM 46.7953 -112.9128 97° East 405 466 25,800 1,597 Climbing Salt Lake Center
Sun 02:36:30 PM 46.7850 -112.7267 95° East 418 481 27,400 1,548 Climbing Salt Lake Center
Sun 02:37:32 PM 46.7733 -112.5544 96° East 427 491 29,000 1,452 Climbing Salt Lake Center
Sun 02:38:34 PM 46.7650 -112.3797 94° East 433 498 30,400 1,355 Climbing Salt Lake Center
Sun 02:39:36 PM 46.7564 -112.2014 94° East 439 505 31,800 1,355 Climbing Salt Lake Center
Sun 02:40:38 PM 46.7483 -112.0228 94° East 443 510 33,200 1,306 Climbing Salt Lake Center
Sun 02:41:40 PM 46.7322 -111.8456 97° East 444 511 34,500 1,161 Climbing Salt Lake Center
Sun 02:42:42 PM 46.7128 -111.6317 97° East 445 512 35,600 968 Climbing Salt Lake Center
Sun 02:43:44 PM 46.6994 -111.4483 96° East 453 521 36,500 629 Climbing Salt Lake Center
Sun 02:44:46 PM 46.6894 -111.2614 94° East 463 533 36,900 194 Climbing Salt Lake Center
Sun 02:45:48 PM 46.6700 -111.0728 98° East 472 543 36,900 48 Level Salt Lake Center
Sun 02:46:50 PM 46.6547 -110.8769 96° East 486 559 37,000 48 Climbing Salt Lake Center
Sun 02:47:52 PM 46.6389 -110.6392 95° East 493 567 37,000  Level Salt Lake Center
Sun 02:48:54 PM 46.6214 -110.4486 98° East 482 555 37,000  Level Salt Lake Center
Sun 02:49:56 PM 46.6028 -110.2567 98° East 480 552 37,000  Level Salt Lake Center
Sun 02:50:58 PM 46.5853 -110.0622 97° East 484 557 37,000  Level Salt Lake Center
Sun 02:52:00 PM 46.5678 -109.8694 97° East 485 558 37,000  Level Salt Lake Center
Sun 02:53:03 PM 46.5464 -109.6381 98° East 482 555 37,000  Level Salt Lake Center
Sun 02:54:05 PM 46.5281 -109.4461 98° East 481 554 37,000  Level Salt Lake Center
Sun 02:55:07 PM 46.5106 -109.2475 97° East 490 564 37,000  Level Salt Lake Center
Sun 02:56:09 PM 46.4917 -109.0556 98° East 484 557 37,000  Level Salt Lake Center
Sun 02:57:11 PM 46.4733 -108.8639 98° East 482 555 37,000  Level Salt Lake Center
Sun 02:58:13 PM 46.4522 -108.6722 99° East 481 554 37,000  Level Salt Lake Center
Sun 02:59:15 PM 46.4317 -108.4800 99° East 483 556 37,000  Level Salt Lake Center
Sun 03:00:17 PM 46.4078 -108.2500 98° East 481 554 37,000  Level Salt Lake Center
Sun 03:01:19 PM 46.3864 -108.0581 99° East 484 557 37,000  Level Salt Lake Center
Sun 03:02:21 PM 46.3661 -107.8661 99° East 483 556 37,000  Level Salt Lake Center
Sun 03:03:23 PM 46.3447 -107.6747 99° East 484 557 37,000  Level Salt Lake Center
Sun 03:04:25 PM 46.3231 -107.4842 99° East 481 554 37,000  Level Salt Lake Center
Sun 03:05:27 PM 46.3000 -107.2917 100° East 486 559 37,000  Level Salt Lake Center
Sun 03:06:29 PM 46.2750 -107.0633 99° East 481 554 37,000  Level Salt Lake Center
Sun 03:07:31 PM 46.2511 -106.8714 100° East 483 556 37,000  Level Salt Lake Center
Sun 03:08:33 PM 46.2256 -106.6800 101° East 485 558 37,000  Level Salt Lake Center
Sun 03:09:35 PM 46.2033 -106.4850 99° East 490 564 37,000 49 Level Salt Lake Center
Sun 03:10:36 PM 46.1789 -106.2928 100° East 489 563 37,100 244 Climbing Salt Lake Center
Sun 03:11:38 PM 46.1544 -106.0975 100° East 491 565 37,500 484 Climbing Salt Lake Center
Sun 03:12:40 PM 46.1308 -105.9031 100° East 494 568 38,100 532 Climbing Salt Lake Center
Sun 03:13:42 PM 46.0983 -105.6758 102° East 487 560 38,600 435 Climbing Salt Lake Center
Sun 03:14:44 PM 46.0714 -105.4847 101° East 487 560 39,000 194 Climbing Salt Lake Center
Sun 03:15:46 PM 46.0436 -105.2908 102° East 491 565 39,000  Level Salt Lake Center
Sun 03:16:48 PM 46.0189 -105.0958 100° East 494 568 39,000  Level Salt Lake Center
Sun 03:17:50 PM 45.9925 -104.8972 101° East 502 578 39,000  Level Salt Lake Center
Sun 03:18:52 PM 45.9669 -104.7006 101° East 503 579 39,000  Level Salt Lake Center
Sun 03:19:54 PM 45.9333 -104.4694 102° East 496 571 39,000 -48 Level Salt Lake Center
Sun 03:20:56 PM 45.9106 -104.3114 102° East 492 566 38,900 -48 Descending Salt Lake Center
Sun 03:21:58 PM 45.8775 -104.0792 101° East 497 572 38,900 48 Level Salt Lake Center
Sun 03:23:00 PM 45.8500 -103.8850 101° East 498 573 39,000  Climbing Salt Lake Center
Sun 03:24:02 PM 45.8208 -103.6917 102° East 498 573 38,900 -48 Descending Salt Lake Center
Sun 03:25:04 PM 45.7908 -103.5014 103° East 494 568 38,900  Level Salt Lake Center
Sun 03:26:06 PM 45.7622 -103.3089 102° East 495 570 38,900  Level Salt Lake Center
Sun 03:27:08 PM 45.7267 -103.0756 102° East 500 575 38,900  Level Salt Lake Center
Sun 03:27:54 PM 45.7094 -102.9681 103° East 497 572 38,900  Level Minneapolis Center
Sun 03:28:56 PM 45.6731 -102.7369 103° East 498 573 38,900 44 Level Minneapolis Center
Sun 03:30:10 PM 45.6456 -102.5672 103° East 497 572 39,000 44 Climbing Minneapolis Center
Sun 03:31:12 PM 45.6000 -102.2989 104° East 497 572 39,000  Level Minneapolis Center
Sun 03:32:15 PM 45.5692 -102.1064 103° East 498 573 39,000  Level Minneapolis Center
Sun 03:33:17 PM 45.5375 -101.9150 103° East 497 572 39,000  Level Minneapolis Center
Sun 03:34:19 PM 45.5050 -101.7239 104° East 497 572 39,000  Level Minneapolis Center
Sun 03:35:33 PM 45.4661 -101.4947 104° East 496 571 39,000  Level Minneapolis Center
Sun 03:36:35 PM 45.4342 -101.3039 103° East 496 571 39,000  Level Minneapolis Center
Sun 03:37:37 PM 45.3983 -101.0769 103° East 491 565 39,000  Level Minneapolis Center
Sun 03:38:40 PM 45.3644 -100.8917 105° East 486 559 39,000  Level Minneapolis Center
Sun 03:39:42 PM 45.3292 -100.7067 105° East 485 558 39,000  Level Minneapolis Center
Sun 03:40:56 PM 45.2961 -100.5228 104° East 482 555 39,000  Level Minneapolis Center
Sun 03:41:58 PM 45.2581 -100.3033 104° East 478 550 39,000  Level Minneapolis Center
Sun 03:43:00 PM 45.2261 -100.1214 104° East 474 545 39,000  Level Minneapolis Center
Sun 03:44:02 PM 45.1936 -99.9319 104° East 482 555 39,000  Level Minneapolis Center
Sun 03:45:05 PM 45.1589 -99.7419 104° East 485 558 39,000  Level Minneapolis Center
Sun 03:46:07 PM 45.1153 -99.5253 106° East 475 547 39,000  Level Minneapolis Center
Sun 03:47:09 PM 45.0803 -99.3456 105° East 473 544 39,000  Level Minneapolis Center
Sun 03:48:11 PM 45.0450 -99.1653 105° East 474 545 39,000 -194 Level Minneapolis Center
Sun 03:49:13 PM 45.0086 -98.9856 106° East 475 547 38,600 -484 Descending Minneapolis Center
Sun 03:50:15 PM 44.9728 -98.8036 105° East 479 551 38,000 -484 Descending Minneapolis Center
Sun 03:51:17 PM 44.9397 -98.6236 104° East 476 548 37,600 -435 Descending Minneapolis Center
Sun 03:52:19 PM 44.9053 -98.4506 106° East 464 534 37,100 -290 Descending Minneapolis Center
Sun 03:53:21 PM 44.8650 -98.2619 107° East 460 529 37,000 -48 Descending Minneapolis Center
Sun 03:54:23 PM 44.8269 -98.0903 107° East 460 529 37,000  Level Minneapolis Center
Sun 03:55:26 PM 44.7836 -97.8833 106° East 461 531 37,000  Level Minneapolis Center
Sun 03:56:28 PM 44.7492 -97.7083 105° East 463 533 37,000  Level Minneapolis Center
Sun 03:57:30 PM 44.7131 -97.5356 106° East 462 532 37,000  Level Minneapolis Center
Sun 03:58:32 PM 44.6756 -97.3614 107° East 465 535 37,000  Level Minneapolis Center
Sun 03:59:34 PM 44.6375 -97.1881 107° East 466 536 37,000  Level Minneapolis Center
Sun 04:00:36 PM 44.6006 -97.0150 107° East 465 535 37,000  Level Minneapolis Center
Sun 04:01:38 PM 44.5553 -96.8058 107° East 468 539 37,000  Level Minneapolis Center
Sun 04:02:40 PM 44.5175 -96.6336 107° East 463 533 37,000  Level Minneapolis Center
Sun 04:03:42 PM 44.4881 -96.4939 106° East 465 535 37,000  Level Minneapolis Center
Sun 04:04:44 PM 44.4431 -96.2828 107° East 468 539 37,000  Level Minneapolis Center
Sun 04:05:46 PM 44.4039 -96.1081 107° East 465 535 37,000  Level Minneapolis Center
Sun 04:06:48 PM 44.3639 -95.9333 108° East 465 535 37,000  Level Minneapolis Center
Sun 04:07:51 PM 44.3228 -95.7597 108° East 467 537 37,000  Level Minneapolis Center
Sun 04:08:53 PM 44.2836 -95.5856 107° East 468 539 37,000  Level Minneapolis Center
Sun 04:09:55 PM 44.2364 -95.3772 107° East 470 541 37,000  Level Minneapolis Center
Sun 04:10:57 PM 44.1942 -95.2058 109° East 467 537 37,000  Level Minneapolis Center
Sun 04:11:59 PM 44.1531 -95.0344 108° East 468 539 37,000  Level Minneapolis Center
Sun 04:13:01 PM 44.1122 -94.8617 108° East 470 541 37,000  Level Minneapolis Center
Sun 04:14:03 PM 44.0722 -94.6908 108° East 466 536 37,000  Level Minneapolis Center
Sun 04:15:05 PM 44.0308 -94.5211 109° East 466 536 37,000  Level Minneapolis Center
Sun 04:16:07 PM 43.9814 -94.3150 108° East 468 539 37,000  Level Minneapolis Center
Sun 04:17:09 PM 43.9453 -94.1686 109° East 471 542 37,000  Level Minneapolis Center
Sun 04:18:11 PM 43.8936 -93.9636 109° East 471 542 37,000  Level Minneapolis Center
Sun 04:19:14 PM 43.8503 -93.7931 109° East 472 543 37,000  Level Minneapolis Center
Sun 04:20:16 PM 43.8078 -93.6208 109° East 474 545 37,000  Level Minneapolis Center
Sun 04:21:18 PM 43.7636 -93.4511 110° East 472 543 37,000  Level Minneapolis Center
Sun 04:22:20 PM 43.7211 -93.2775 109° East 477 549 37,000  Level Minneapolis Center
Sun 04:23:22 PM 43.6772 -93.0997 109° East 475 547 37,000  Level Minneapolis Center
Sun 04:24:24 PM 43.6250 -92.8947 109° East 476 548 37,000  Level Minneapolis Center
Sun 04:25:26 PM 43.5789 -92.7250 111° Southeast 476 548 37,000  Level Minneapolis Center
Sun 04:26:28 PM 43.5292 -92.5581 112° Southeast 475 547 37,000 -339 Level Minneapolis Center
Sun 04:27:30 PM 43.4464 -92.4217 130° Southeast 469 540 36,300 -871 Descending Minneapolis Center
Sun 04:28:32 PM 43.3769 -92.3131 131° Southeast 474 545 35,200 -1,500 Descending Minneapolis Center
Sun 04:29:34 PM 43.2572 -92.1214 131° Southeast 476 548 33,200 -1,588 Descending Minneapolis Center
Sun 04:30:48 PM 43.1736 -91.9794 129° Southeast 479 551 31,600 -1,226 Descending Minneapolis Center
Sun 04:31:51 PM 43.0778 -91.8086 127° Southeast 478 550 30,400 -1,104 Descending Minneapolis Center
Sun 04:32:53 PM 42.9989 -91.6689 128° Southeast 471 542 29,300 -677 Descending Minneapolis Center
Sun 04:33:55 PM 42.9164 -91.5319 129° Southeast 465 535 29,000 -145 Descending Minneapolis Center
Sun 04:34:57 PM 42.8453 -91.3819 123° Southeast 481 554 29,000  Level Minneapolis Center
Sun 04:35:59 PM 42.7992 -91.2167 111° Southeast 469 540 29,000 -194 Level Minneapolis Center
Sun 04:37:01 PM 42.7478 -91.0186 109° East 467 537 28,600 -726 Descending Minneapolis Center
Sun 04:38:03 PM 42.7003 -90.8500 111° Southeast 474 545 27,500 -1,210 Descending Minneapolis Center
Sun 04:39:05 PM 42.6497 -90.6794 112° Southeast 485 558 26,100 -1,352 Descending Minneapolis Center
Sun 04:40:25 PM 42.5886 -90.4467 110° East 477 549 24,300 -1,986 Descending Chicago Center
Sun 04:41:27 PM 42.5389 -90.2781 112° Southeast 483 556 21,400 -2,208 Descending Chicago Center
Sun 04:42:30 PM 42.4908 -90.1086 111° Southeast 487 560 19,700 -1,392 Descending Chicago Center
Sun 04:43:32 PM 42.4853 -89.9394 92° East 459 528 18,500 -1,210 Descending Chicago Center
Sun 04:44:34 PM 42.4772 -89.7578 93° East 443 510 17,200 -1,548 Descending Chicago Center
Sun 04:45:36 PM 42.4597 -89.5678 97° East 437 503 15,300 -1,645 Descending Chicago Center
Sun 04:46:38 PM 42.4453 -89.4058 97° East 435 501 13,800 -1,452 Descending Chicago Center
Sun 04:47:40 PM 42.4353 -89.2531 95° East 415 478 12,300 -1,597 Descending Chicago Center
Sun 04:48:42 PM 42.4231 -89.1047 96° East 401 461 10,500 -1,452 Descending Chicago Center
Sun 04:49:44 PM 42.4133 -88.9869 96° East 326 375 9,300 -1,548 Descending Chicago Center
Sun 04:50:46 PM 42.3728 -88.8925 120° Southeast 295 339 7,300 -1,887 Descending Chicago Center
Sun 04:51:48 PM 42.3247 -88.7947 124° Southeast 287 330 5,400 -1,104 Descending Chicago Center
Sun 04:52:51 PM 42.3214 -88.6894 92° East 297 342 5,000 -194 Descending Chicago Center
Sun 04:53:52 PM 42.3100 -88.5800 98° East 297 342 5,000  Level Chicago Center
Sun 04:54:54 PM 42.2969 -88.4436 97° East 304 350 5,000  Level Chicago Center
Sun 04:55:56 PM 42.2867 -88.3311 97° East 304 350 5,000  Level Chicago Center
Sun 04:56:59 PM 42.2761 -88.2203 97° East 302 348 5,000 -240 Level Chicago Center
Sun 04:58:01 PM 42.2289 -88.1331 126° Southeast 290 334 4,500 -1,104 Descending Chicago Center
Sun 04:59:04 PM 42.1958 -88.0442 117° Southeast 277 319 2,700 -1,248 Descending Chicago Center
Sun 05:00:06 PM 42.1919 -87.9494 93° East 238 274 1,900 -435 Descending Chicago Center
Sun 05:01:08 PM 42.1697 -87.9228 138° Southeast 203 234 1,800 -97 Descending Chicago Center
Sun 05:03:00 PM 42.1143 -87.9015 109° East  Level Estimated
Sun 05:10:00 PM 42.1143 -87.9015 109° East  Level Estimated
Sun 05:11:00 PM 42.1143 -87.9015 109° East  Level Estimated

Login

Don't have an account? Register now (free) for customized features, flight alerts, and more!